Time;durP1;ratioP1;P1;durP2;ratioP2;P2;SDS_P1;SDS_P2;PMS_P1;PMS_P2;Temp;Humidity;BMP_temperature;BMP_pressure;BME280_temperature;BME280_humidity;BME280_pressure;Samples;Min_cycle;Max_cycle;Signal;HPM_P1;HPM_P2
2022/02/17 00:01:49;;;;;;;0.60;0.40;;;;;;;2.06;100.00;96406.38;4755357;30;20040;-78
2022/02/17 00:04:14;;;;;;;1.33;0.60;;;;;;;2.08;100.00;96390.97;4737697;30;20040;-78
2022/02/17 00:06:41;;;;;;;1.02;0.60;;;;;;;2.13;100.00;96398.19;4737705;30;20167;-79
2022/02/17 00:09:06;;;;;;;0.70;0.50;;;;;;;2.00;100.00;96393.31;4738277;30;20047;-79
2022/02/17 00:11:31;;;;;;;0.60;0.50;;;;;;;2.07;100.00;96399.22;4754671;30;20040;-79
2022/02/17 00:13:57;;;;;;;0.40;0.30;;;;;;;2.07;100.00;96388.59;4768515;30;20101;-79
2022/02/17 00:16:22;;;;;;;0.38;0.38;;;;;;;2.05;100.00;96396.81;4768138;30;20495;-79
2022/02/17 00:18:47;;;;;;;0.85;0.60;;;;;;;1.96;100.00;96378.97;4766159;30;20371;-78
2022/02/17 00:21:13;;;;;;;1.10;0.40;;;;;;;2.01;100.00;96379.78;4738725;30;20080;-79
2022/02/17 00:23:38;;;;;;;1.00;0.40;;;;;;;2.11;100.00;96390.47;4753118;30;20372;-79
2022/02/17 00:26:03;;;;;;;2.08;0.40;;;;;;;2.08;100.00;96395.50;4754278;30;20032;-79
2022/02/17 00:28:30;;;;;;;0.40;0.40;;;;;;;2.05;100.00;96388.88;4753996;30;20044;-79
2022/02/17 00:30:56;;;;;;;0.52;0.52;;;;;;;2.11;100.00;96387.81;4754760;30;20036;-79
2022/02/17 00:33:21;;;;;;;0.90;0.70;;;;;;;2.09;100.00;96391.81;4754445;30;20100;-78
2022/02/17 00:35:47;;;;;;;1.00;0.50;;;;;;;2.07;100.00;96383.28;4762937;30;20067;-78
2022/02/17 00:38:12;;;;;;;1.85;0.80;;;;;;;1.98;100.00;96385.59;4745056;30;20104;-79
2022/02/17 00:40:38;;;;;;;0.70;0.70;;;;;;;2.00;100.00;96377.41;4767467;30;20036;-79
2022/02/17 00:43:03;;;;;;;0.60;0.60;;;;;;;2.08;100.00;96390.19;4751903;30;20486;-78
2022/02/17 00:45:28;;;;;;;0.73;0.73;;;;;;;2.10;100.00;96390.75;4767874;30;20047;-78
2022/02/17 00:47:54;;;;;;;1.00;0.95;;;;;;;1.85;100.00;96364.81;4754487;30;20133;-78
2022/02/17 00:50:19;;;;;;;1.25;1.00;;;;;;;2.02;100.00;96394.69;4754821;30;20043;-78
2022/02/17 00:52:45;;;;;;;0.82;0.80;;;;;;;2.04;100.00;96394.41;4733816;30;20040;-79
2022/02/17 00:55:10;;;;;;;1.30;1.20;;;;;;;1.96;100.00;96395.69;4734537;30;20401;-78
2022/02/17 00:57:35;;;;;;;1.75;1.20;;;;;;;1.82;100.00;96379.41;4751566;30;20439;-79
2022/02/17 01:00:03;;;;;;;1.55;1.30;;;;;;;1.98;100.00;96400.72;4737751;30;20051;-78
2022/02/17 01:02:28;;;;;;;0.63;0.63;;;;;;;1.78;100.00;96380.94;4752939;30;20058;-79
2022/02/17 01:04:54;;;;;;;0.80;0.80;;;;;;;1.92;100.00;96407.84;4752462;30;20464;-79
2022/02/17 01:07:19;;;;;;;1.05;0.95;;;;;;;1.85;100.00;96397.44;4751413;30;20047;-78
2022/02/17 01:09:45;;;;;;;0.95;0.90;;;;;;;1.73;100.00;96394.16;4755091;30;20044;-79
2022/02/17 01:12:10;;;;;;;1.20;1.10;;;;;;;1.83;100.00;96428.69;4755486;30;20063;-79
2022/02/17 01:14:36;;;;;;;1.10;1.00;;;;;;;1.76;100.00;96417.50;4764887;30;20031;-79
2022/02/17 01:17:03;;;;;;;0.52;0.52;;;;;;;1.77;100.00;96424.38;4753508;30;20105;-79
2022/02/17 01:19:28;;;;;;;0.88;0.82;;;;;;;1.59;100.00;96388.44;4738210;30;20423;-79
2022/02/17 01:21:54;;;;;;;0.70;0.70;;;;;;;1.86;100.00;96436.16;4753033;30;20051;-79
2022/02/17 01:24:20;;;;;;;0.70;0.60;;;;;;;1.77;100.00;96421.72;4753913;30;20036;-80
2022/02/17 01:26:45;;;;;;;0.68;0.50;;;;;;;1.71;100.00;96419.28;4755275;30;20036;-79
2022/02/17 01:29:11;;;;;;;1.55;0.57;;;;;;;1.84;100.00;96432.94;4736634;30;20067;-79
2022/02/17 01:31:36;;;;;;;0.90;0.60;;;;;;;1.58;100.00;96444.31;4753041;30;20074;-78
2022/02/17 01:34:02;;;;;;;0.77;0.50;;;;;;;1.79;100.00;96453.31;4751408;30;20080;-78
2022/02/17 01:36:27;;;;;;;0.43;0.30;;;;;;;1.82;100.00;96464.19;4755843;30;20036;-78
2022/02/17 01:38:53;;;;;;;0.80;0.60;;;;;;;1.75;100.00;96455.63;4751952;30;20033;-78
2022/02/17 01:41:18;;;;;;;0.95;0.50;;;;;;;1.75;100.00;96481.31;4758089;30;20455;-78
2022/02/17 01:43:48;;;;;;;0.60;0.60;;;;;;;1.72;100.00;96464.06;4782523;30;20047;-78
2022/02/17 01:46:14;;;;;;;0.40;0.40;;;;;;;1.75;100.00;96468.88;4766473;30;20036;-78
2022/02/17 01:48:41;;;;;;;0.55;0.50;;;;;;;1.65;100.00;96455.53;4765088;30;20054;-78
2022/02/17 01:51:07;;;;;;;0.60;0.60;;;;;;;1.68;100.00;96457.69;4759150;30;20040;-78
2022/02/17 01:53:32;;;;;;;0.52;0.40;;;;;;;1.79;100.00;96491.19;4769881;30;20040;-78
2022/02/17 01:55:59;;;;;;;0.95;0.60;;;;;;;1.76;100.00;96481.09;4785154;29;20039;-79
2022/02/17 01:58:26;;;;;;;0.50;0.40;;;;;;;1.53;100.00;96439.78;4772318;30;20036;-78
2022/02/17 02:00:52;;;;;;;0.40;0.30;;;;;;;1.79;100.00;96466.56;4757188;30;20032;-78
2022/02/17 02:03:17;;;;;;;0.35;0.35;;;;;;;1.79;100.00;96493.06;4750844;30;20117;-78
2022/02/17 02:05:43;;;;;;;0.98;0.30;;;;;;;1.54;100.00;96448.53;4766330;30;20044;-78
2022/02/17 02:08:10;;;;;;;0.30;0.30;;;;;;;1.68;100.00;96483.38;4768239;30;20040;-78
2022/02/17 02:10:35;;;;;;;0.80;0.35;;;;;;;1.71;100.00;96501.44;4770254;30;20040;-79
2022/02/17 02:13:01;;;;;;;0.50;0.30;;;;;;;1.63;100.00;96495.53;4765207;30;20402;-78
2022/02/17 02:15:39;;;;;;;0.47;0.32;;;;;;;1.47;100.00;96491.09;4756230;30;20050;-78
2022/02/17 02:18:05;;;;;;;0.73;0.47;;;;;;;1.66;100.00;96531.31;4742271;30;20036;-78
2022/02/17 02:20:30;;;;;;;0.30;0.30;;;;;;;1.68;100.00;96520.47;4757164;30;20444;-79
2022/02/17 02:22:55;;;;;;;0.82;0.35;;;;;;;1.68;100.00;96523.13;4743332;30;20053;-78
2022/02/17 02:25:24;;;;;;;0.40;0.40;;;;;;;1.67;100.00;96511.72;4755358;30;20123;-78
2022/02/17 02:27:52;;;;;;;0.65;0.40;;;;;;;1.71;100.00;96523.41;4754591;30;20036;-78
2022/02/17 02:30:18;;;;;;;0.52;0.40;;;;;;;1.68;100.00;96526.56;4740607;30;20032;-79
2022/02/17 02:32:43;;;;;;;1.55;0.50;;;;;;;1.72;100.00;96538.25;4739704;30;20440;-79
2022/02/17 02:35:08;;;;;;;0.57;0.40;;;;;;;1.75;100.00;96550.22;4755771;30;20060;-78
2022/02/17 02:37:34;;;;;;;0.38;0.30;;;;;;;1.70;100.00;96543.03;4741068;30;20044;-79
2022/02/17 02:39:59;;;;;;;1.50;0.32;;;;;;;1.76;100.00;96554.50;4769996;30;20091;-78
2022/02/17 02:42:25;;;;;;;0.85;0.50;;;;;;;1.76;100.00;96550.00;4755305;30;20387;-78
2022/02/17 02:44:50;;;;;;;0.55;0.38;;;;;;;1.65;100.00;96535.81;4755006;30;20068;-78
2022/02/17 02:47:15;;;;;;;0.50;0.50;;;;;;;1.85;100.00;96545.88;4754716;30;20044;-78
2022/02/17 02:49:41;;;;;;;0.50;0.32;;;;;;;1.74;100.00;96538.84;4754850;30;20046;-79
2022/02/17 02:52:07;;;;;;;0.82;0.50;;;;;;;1.82;100.00;96545.53;4754676;30;20105;-79
2022/02/17 02:54:33;;;;;;;0.73;0.40;;;;;;;1.88;100.00;96563.09;4754041;30;20040;-78
2022/02/17 02:56:58;;;;;;;0.43;0.30;;;;;;;1.94;100.00;96561.31;4763746;30;20047;-78
2022/02/17 02:59:24;;;;;;;1.40;0.20;;;;;;;1.86;100.00;96538.72;4762358;30;20113;-78
2022/02/17 03:01:51;;;;;;;1.40;0.25;;;;;;;1.60;100.00;96508.47;4755161;30;20051;-78
2022/02/17 03:04:16;;;;;;;1.20;0.50;;;;;;;1.92;100.00;96577.50;4753988;30;20464;-78
2022/02/17 03:06:41;;;;;;;1.08;0.32;;;;;;;2.02;100.00;96574.94;4740806;30;20044;-78
2022/02/17 03:09:07;;;;;;;0.28;0.20;;;;;;;1.95;100.00;96581.47;4755205;30;20514;-78
2022/02/17 03:11:34;;;;;;;0.65;0.30;;;;;;;1.95;100.00;96590.22;4753382;30;20044;-78
2022/02/17 03:14:00;;;;;;;0.47;0.25;;;;;;;2.02;100.00;96609.41;4740901;30;20051;-78
2022/02/17 03:16:27;;;;;;;1.20;0.40;;;;;;;2.12;100.00;96614.03;4756498;30;20096;-79
2022/02/17 03:18:54;;;;;;;1.10;0.20;;;;;;;2.11;100.00;96612.41;4754627;30;20028;-79
2022/02/17 03:21:19;;;;;;;0.40;0.30;;;;;;;2.15;100.00;96621.47;4768473;30;20545;-78
2022/02/17 03:23:44;;;;;;;1.23;0.30;;;;;;;2.13;100.00;96625.44;4738222;30;20097;-78
2022/02/17 03:26:10;;;;;;;0.93;0.30;;;;;;;2.18;100.00;96638.75;4738641;30;20471;-78
2022/02/17 03:28:35;;;;;;;1.02;0.30;;;;;;;2.04;100.00;96640.97;4754052;30;20040;-78
2022/02/17 03:31:01;;;;;;;0.85;0.25;;;;;;;2.31;100.00;96655.06;4768431;30;20100;-78
2022/02/17 03:33:26;;;;;;;0.93;0.30;;;;;;;2.25;100.00;96665.88;4771501;30;20081;-78
2022/02/17 03:35:51;;;;;;;1.63;1.05;;;;;;;2.27;100.00;96653.97;4756177;30;20060;-78
2022/02/17 03:38:17;;;;;;;3.15;0.60;;;;;;;2.45;100.00;96667.94;4753721;30;20630;-77
2022/02/17 03:40:42;;;;;;;2.17;0.50;;;;;;;2.30;100.00;96658.78;4753036;30;20036;-78
2022/02/17 03:43:08;;;;;;;1.65;0.40;;;;;;;2.35;100.00;96677.44;4768603;30;20134;-78
2022/02/17 03:45:33;;;;;;;0.55;0.40;;;;;;;2.07;100.00;96673.09;4756968;30;20024;-78
2022/02/17 03:47:58;;;;;;;1.42;0.40;;;;;;;2.16;100.00;96702.66;4755721;30;20036;-78
2022/02/17 03:50:24;;;;;;;1.38;0.50;;;;;;;1.98;100.00;96693.13;4754419;30;20067;-79
2022/02/17 03:52:49;;;;;;;0.95;0.30;;;;;;;2.08;100.00;96719.75;4756948;30;20124;-78
2022/02/17 03:55:16;;;;;;;0.40;0.22;;;;;;;2.13;100.00;96716.41;4754408;30;20127;-78
2022/02/17 03:57:44;;;;;;;1.20;0.50;;;;;;;2.12;100.00;96720.09;4753680;30;20093;-78
2022/02/17 04:00:11;;;;;;;1.25;0.50;;;;;;;2.04;100.00;96739.88;4754720;30;20040;-78
2022/02/17 04:02:36;;;;;;;0.90;0.30;;;;;;;1.98;100.00;96751.44;4754422;30;20044;-78
2022/02/17 04:05:03;;;;;;;0.75;0.32;;;;;;;1.87;100.00;96724.00;4753209;30;20038;-77
2022/02/17 04:07:28;;;;;;;0.70;0.30;;;;;;;2.03;100.00;96769.28;4751834;30;20036;-78
2022/02/17 04:09:53;;;;;;;1.25;0.40;;;;;;;2.04;100.00;96769.03;4767530;30;20163;-78
2022/02/17 04:12:19;;;;;;;1.20;0.57;;;;;;;2.15;100.00;96790.38;4753778;30;20040;-78
2022/02/17 04:14:44;;;;;;;1.45;0.60;;;;;;;2.14;100.00;96808.16;4755448;30;20040;-78
2022/02/17 04:17:09;;;;;;;0.65;0.40;;;;;;;2.11;100.00;96814.72;4755092;30;20353;-78
2022/02/17 04:19:35;;;;;;;1.60;0.50;;;;;;;2.11;100.00;96817.38;4767377;30;20048;-78
2022/02/17 04:22:00;;;;;;;0.65;0.30;;;;;;;2.19;100.00;96829.44;4752800;30;20063;-78
2022/02/17 04:24:25;;;;;;;1.33;0.50;;;;;;;2.09;100.00;96811.53;4765718;30;20141;-78
2022/02/17 04:26:51;;;;;;;1.50;0.40;;;;;;;2.08;100.00;96839.09;4753243;30;20032;-78
2022/02/17 04:29:16;;;;;;;0.73;0.32;;;;;;;2.08;100.00;96836.44;4766888;30;20047;-78
2022/02/17 04:31:42;;;;;;;1.65;0.52;;;;;;;1.95;100.00;96847.38;4738649;30;20070;-78
2022/02/17 04:34:08;;;;;;;1.70;0.40;;;;;;;2.11;100.00;96857.16;4767566;30;20123;-78
2022/02/17 04:36:34;;;;;;;1.08;0.40;;;;;;;2.06;100.00;96872.22;4753574;30;20043;-78
2022/02/17 04:38:59;;;;;;;1.40;0.47;;;;;;;2.17;100.00;96892.53;4766982;30;20020;-78
2022/02/17 04:44:09;;;;;;;0.85;0.40;;;;;;;2.29;100.00;96895.91;4754290;30;20093;-78
2022/02/17 04:46:34;;;;;;;1.75;0.43;;;;;;;2.29;100.00;96906.53;4752704;30;20265;-77
2022/02/17 04:49:00;;;;;;;1.90;0.40;;;;;;;2.16;100.00;96909.50;4753160;30;20044;-78
2022/02/17 04:51:25;;;;;;;1.17;0.32;;;;;;;2.20;100.00;96923.88;4751323;30;20086;-78
2022/02/17 04:53:51;;;;;;;1.63;0.52;;;;;;;2.21;100.00;96930.78;4752737;30;20082;-78
2022/02/17 04:56:16;;;;;;;1.60;0.30;;;;;;;2.06;100.00;96935.84;4753598;30;20391;-78
2022/02/17 04:58:42;;;;;;;1.73;0.38;;;;;;;2.23;100.00;96957.88;4752293;30;20040;-77
2022/02/17 05:01:07;;;;;;;1.67;0.40;;;;;;;2.21;100.00;96962.59;4764670;30;20048;-78
2022/02/17 05:03:33;;;;;;;1.17;0.40;;;;;;;2.21;100.00;96946.69;4763454;30;20050;-77
2022/02/17 05:05:59;;;;;;;0.85;0.60;;;;;;;2.16;100.00;96951.94;4766977;30;20092;-78
2022/02/17 05:08:24;;;;;;;1.27;0.40;;;;;;;1.99;100.00;96943.16;4751594;30;20040;-78
2022/02/17 05:10:49;;;;;;;0.57;0.20;;;;;;;2.28;100.00;96992.44;4767436;30;20422;-78
2022/02/17 05:13:16;;;;;;;2.58;0.40;;;;;;;2.29;100.00;96993.25;4750892;30;20044;-77
2022/02/17 05:15:42;;;;;;;1.35;0.47;;;;;;;2.37;100.00;97002.66;4753538;30;20105;-78
2022/02/17 05:18:07;;;;;;;1.13;0.30;;;;;;;2.24;100.00;97009.88;4753516;30;20519;-78
2022/02/17 05:20:33;;;;;;;0.75;0.30;;;;;;;2.24;100.00;97001.91;4753772;30;20123;-78
2022/02/17 05:22:58;;;;;;;0.98;0.30;;;;;;;2.33;100.00;97031.53;4737597;30;20361;-79
2022/02/17 05:25:24;;;;;;;3.03;0.45;;;;;;;2.39;100.00;97029.78;4753298;30;20039;-78
2022/02/17 05:27:50;;;;;;;1.88;0.60;;;;;;;2.42;100.00;97043.34;4734500;30;20078;-78
2022/02/17 05:30:16;;;;;;;3.00;0.50;;;;;;;2.34;100.00;97025.16;4753041;30;20051;-79
2022/02/17 05:32:42;;;;;;;1.08;0.32;;;;;;;2.42;100.00;97053.13;4752716;30;20036;-79
2022/02/17 05:35:09;;;;;;;1.35;0.40;;;;;;;2.38;100.00;97036.09;4752428;30;20507;-78
2022/02/17 05:37:36;;;;;;;2.50;0.60;;;;;;;2.46;100.00;97054.28;4757375;30;20043;-79
2022/02/17 05:40:03;;;;;;;3.45;0.70;;;;;;;2.34;100.00;97051.69;4768096;29;20038;-78
2022/02/17 05:42:29;;;;;;;1.98;0.50;;;;;;;2.34;100.00;97064.94;4768216;30;20456;-79
2022/02/17 05:44:55;;;;;;;2.13;0.70;;;;;;;2.46;100.00;97094.91;4741493;30;20035;-80
2022/02/17 05:47:20;;;;;;;2.63;0.60;;;;;;;2.37;100.00;97114.09;4758402;30;20036;-79
2022/02/17 05:49:45;;;;;;;2.88;0.70;;;;;;;2.40;100.00;97117.06;4762077;30;20036;-78
2022/02/17 05:52:12;;;;;;;2.65;0.70;;;;;;;1.95;100.00;97069.25;4740710;30;20047;-79
2022/02/17 05:54:38;;;;;;;3.85;0.60;;;;;;;2.37;100.00;97144.06;4744038;30;20047;-79
2022/02/17 05:57:03;;;;;;;3.70;0.80;;;;;;;2.18;100.00;97132.03;4764731;30;20036;-79
2022/02/17 05:59:29;;;;;;;2.28;0.70;;;;;;;2.29;100.00;97171.78;4775110;30;20394;-78
2022/02/17 06:01:54;;;;;;;2.38;0.90;;;;;;;2.41;100.00;97179.69;4762571;30;20032;-78
2022/02/17 06:04:19;;;;;;;3.35;0.93;;;;;;;2.28;100.00;97158.75;4756108;30;20044;-78
2022/02/17 06:06:45;;;;;;;2.70;0.80;;;;;;;2.31;100.00;97175.00;4755466;30;20055;-77
2022/02/17 06:09:11;;;;;;;2.13;0.77;;;;;;;2.43;100.00;97192.75;4768240;30;20479;-79
2022/02/17 06:11:36;;;;;;;3.85;0.80;;;;;;;2.34;100.00;97211.66;4768448;30;20036;-78
2022/02/17 06:14:02;;;;;;;4.43;1.20;;;;;;;2.22;100.00;97207.41;4739613;30;20080;-79
2022/02/17 06:16:27;;;;;;;3.45;1.17;;;;;;;2.36;100.00;97235.31;4757760;30;20040;-79
2022/02/17 06:18:53;;;;;;;3.78;0.90;;;;;;;2.44;100.00;97242.09;4761349;30;20036;-80
2022/02/17 06:21:18;;;;;;;3.65;1.33;;;;;;;2.22;100.00;97226.81;4761311;30;20043;-79
2022/02/17 06:23:43;;;;;;;6.63;1.25;;;;;;;2.20;100.00;97247.44;4723283;30;20063;-79
2022/02/17 06:26:09;;;;;;;6.47;1.77;;;;;;;2.34;100.00;97258.63;4759488;30;20120;-79
2022/02/17 06:28:36;;;;;;;4.32;1.00;;;;;;;2.28;100.00;97260.34;4771798;30;20372;-80
2022/02/17 06:31:02;;;;;;;5.65;1.33;;;;;;;2.26;100.00;97251.84;4748608;30;20036;-79
2022/02/17 06:33:28;;;;;;;8.55;1.50;;;;;;;2.38;100.00;97288.13;4758742;30;20032;-78
2022/02/17 06:35:53;;;;;;;8.65;1.65;;;;;;;2.21;100.00;97283.53;4763780;30;20063;-78
2022/02/17 06:38:19;;;;;;;8.00;1.40;;;;;;;2.30;100.00;97314.00;4761908;30;20032;-78
2022/02/17 06:40:44;;;;;;;5.72;1.40;;;;;;;2.26;100.00;97310.19;4755344;30;20087;-78
2022/02/17 06:43:12;;;;;;;7.30;1.38;;;;;;;2.42;100.00;97323.78;4756939;30;20042;-78
2022/02/17 06:45:40;;;;;;;5.40;1.05;;;;;;;2.42;100.00;97329.06;4755118;30;20043;-79
2022/02/17 06:48:06;;;;;;;6.45;1.75;;;;;;;2.50;100.00;97349.97;4768655;30;20129;-78
2022/02/17 06:50:32;;;;;;;7.43;1.33;;;;;;;2.48;100.00;97355.50;4755052;30;20043;-78
2022/02/17 06:52:58;;;;;;;6.53;1.30;;;;;;;2.39;100.00;97361.41;4748251;30;20398;-78
2022/02/17 06:55:23;;;;;;;4.28;1.23;;;;;;;2.39;100.00;97372.03;4773411;30;20028;-79
2022/02/17 06:57:49;;;;;;;11.52;1.55;;;;;;;2.45;100.00;97377.22;4763440;30;20119;-79
2022/02/17 07:00:15;;;;;;;9.15;1.88;;;;;;;2.42;100.00;97366.22;4758171;30;20070;-79
2022/02/17 07:02:40;;;;;;;18.27;2.25;;;;;;;2.61;100.00;97391.59;4753917;30;20036;-79
2022/02/17 07:05:06;;;;;;;10.15;1.65;;;;;;;2.57;100.00;97401.88;4736934;30;20372;-79
2022/02/17 07:07:35;;;;;;;11.32;2.10;;;;;;;2.39;100.00;97403.88;4755509;30;20086;-79
2022/02/17 07:10:07;;;;;;;7.78;1.30;;;;;;;2.48;100.00;97421.03;4770534;30;20040;-79
2022/02/17 07:12:32;;;;;;;11.77;2.22;;;;;;;2.33;100.00;97390.47;4760642;30;20620;-79
2022/02/17 07:14:58;;;;;;;9.95;1.90;;;;;;;2.66;100.00;97441.38;4756501;30;20035;-79
2022/02/17 07:17:24;;;;;;;9.38;1.80;;;;;;;2.72;100.00;97441.25;4761673;30;20036;-80
2022/02/17 07:19:50;;;;;;;12.20;1.88;;;;;;;2.70;100.00;97445.97;4755175;30;20028;-79
2022/02/17 07:22:16;;;;;;;6.60;1.27;;;;;;;2.71;100.00;97436.97;4768415;30;20067;-78
2022/02/17 07:24:42;;;;;;;15.70;2.30;;;;;;;2.71;100.00;97460.84;4748925;30;20040;-78
2022/02/17 07:27:07;;;;;;;11.02;1.35;;;;;;;2.79;100.00;97473.00;4755229;30;20125;-78
2022/02/17 07:29:34;;;;;;;9.75;2.00;;;;;;;2.69;100.00;97488.69;4754492;30;20441;-79
2022/02/17 07:32:00;;;;;;;9.40;1.58;;;;;;;2.80;100.00;97494.00;4754998;30;20852;-79
2022/02/17 07:34:25;;;;;;;10.30;1.77;;;;;;;2.76;100.00;97489.38;4754022;30;20068;-77
2022/02/17 07:36:51;;;;;;;9.45;1.67;;;;;;;2.73;100.00;97495.94;4760517;30;20052;-79
2022/02/17 07:39:16;;;;;;;12.60;1.17;;;;;;;2.65;100.00;97493.66;4768757;30;20043;-78
2022/02/17 07:41:42;;;;;;;14.48;1.77;;;;;;;2.72;100.00;97510.28;4755827;30;21205;-78
2022/02/17 07:44:08;;;;;;;10.25;1.55;;;;;;;2.59;100.00;97505.97;4757413;30;20039;-79
2022/02/17 07:46:34;;;;;;;12.75;2.05;;;;;;;2.80;100.00;97528.50;4762609;30;20044;-79
2022/02/17 07:49:01;;;;;;;12.60;1.65;;;;;;;2.69;100.00;97528.50;4755809;30;20039;-79
2022/02/17 07:51:28;;;;;;;4.38;0.98;;;;;;;2.80;100.00;97555.06;4758200;30;20031;-79
2022/02/17 07:53:53;;;;;;;8.18;1.27;;;;;;;2.59;100.00;97516.59;4753968;30;20422;-79
2022/02/17 07:56:19;;;;;;;4.65;0.85;;;;;;;2.79;100.00;97569.38;4754698;30;20050;-79
2022/02/17 07:58:44;;;;;;;6.53;1.30;;;;;;;2.83;100.00;97567.88;4764059;30;20055;-79
2022/02/17 08:01:10;;;;;;;5.88;1.08;;;;;;;2.79;100.00;97564.06;4757745;30;20506;-79
2022/02/17 08:03:36;;;;;;;8.52;1.90;;;;;;;2.75;100.00;97564.78;4738858;30;20551;-79
2022/02/17 08:06:01;;;;;;;6.72;0.90;;;;;;;2.92;100.00;97588.81;4766061;30;20527;-79
2022/02/17 08:08:27;;;;;;;9.65;1.98;;;;;;;2.74;100.00;97569.25;4753743;30;20070;-79
2022/02/17 08:10:52;;;;;;;12.88;1.98;;;;;;;2.95;100.00;97583.84;4753617;30;20059;-80
2022/02/17 08:13:19;;;;;;;16.00;2.03;;;;;;;2.74;100.00;97587.81;4753089;30;20040;-80
2022/02/17 08:15:45;;;;;;;10.57;1.65;;;;;;;2.85;100.00;97593.38;4755315;30;20047;-80
2022/02/17 08:18:10;;;;;;;11.85;1.58;;;;;;;2.88;100.00;97607.03;4755527;30;20094;-79
2022/02/17 08:20:36;;;;;;;8.65;2.20;;;;;;;2.90;100.00;97596.19;4749238;30;20036;-80
2022/02/17 08:23:02;;;;;;;12.57;1.90;;;;;;;3.10;100.00;97628.53;4761842;29;20047;-79
2022/02/17 08:25:27;;;;;;;10.25;1.40;;;;;;;3.25;100.00;97625.44;4754024;30;20047;-79
2022/02/17 08:27:53;;;;;;;6.82;1.13;;;;;;;3.27;100.00;97640.09;4772197;30;20043;-79
2022/02/17 08:30:19;;;;;;;13.90;2.35;;;;;;;3.26;100.00;97641.16;4759452;30;20036;-79
2022/02/17 08:32:45;;;;;;;6.25;1.02;;;;;;;3.34;100.00;97652.47;4754220;30;20460;-79
2022/02/17 08:35:11;;;;;;;9.85;1.35;;;;;;;3.33;100.00;97632.25;4751285;30;20483;-78
2022/02/17 08:37:38;;;;;;;7.57;1.65;;;;;;;3.43;100.00;97659.06;4751874;30;20044;-78
2022/02/17 08:40:05;;;;;;;9.00;1.52;;;;;;;3.51;100.00;97670.19;4752824;30;20033;-79
2022/02/17 08:42:31;;;;;;;9.05;1.88;;;;;;;3.44;100.00;97666.00;4767762;30;20043;-79
2022/02/17 08:44:56;;;;;;;6.05;1.33;;;;;;;3.52;100.00;97686.94;4754403;30;20040;-79
2022/02/17 08:47:21;;;;;;;8.48;1.40;;;;;;;3.53;100.00;97691.22;4754320;30;20052;-78
2022/02/17 08:49:47;;;;;;;12.85;1.65;;;;;;;3.56;100.00;97695.25;4764998;30;20040;-79
2022/02/17 08:52:13;;;;;;;10.77;2.47;;;;;;;3.56;100.00;97697.94;4753162;30;20028;-79
2022/02/17 08:54:39;;;;;;;10.32;1.52;;;;;;;3.66;100.00;97714.91;4750783;30;20056;-79
2022/02/17 08:57:04;;;;;;;9.23;1.63;;;;;;;3.71;100.00;97714.25;4759409;30;20032;-78
2022/02/17 08:59:30;;;;;;;10.05;1.23;;;;;;;3.75;100.00;97705.56;4770421;29;20093;-79
2022/02/17 09:01:56;;;;;;;9.43;2.20;;;;;;;3.89;100.00;97715.97;4754989;30;20047;-79
2022/02/17 09:04:21;;;;;;;9.00;1.38;;;;;;;3.92;100.00;97726.16;4753390;30;20036;-78
2022/02/17 09:06:48;;;;;;;11.07;1.52;;;;;;;3.83;100.00;97720.34;4751644;30;20032;-78
2022/02/17 09:09:14;;;;;;;10.13;1.88;;;;;;;3.88;100.00;97731.13;4752521;30;20028;-79
2022/02/17 09:11:40;;;;;;;13.63;2.28;;;;;;;3.85;100.00;97736.09;4753280;30;20048;-79
2022/02/17 09:14:05;;;;;;;13.32;1.88;;;;;;;3.75;100.00;97749.97;4764958;30;20302;-78
2022/02/17 09:16:32;;;;;;;7.93;1.60;;;;;;;3.67;100.00;97759.06;4739129;30;20032;-78
2022/02/17 09:18:57;;;;;;;11.35;2.08;;;;;;;3.65;100.00;97769.16;4763164;30;20055;-78
2022/02/17 09:21:22;;;;;;;13.82;2.53;;;;;;;3.63;100.00;97751.78;4760269;30;20376;-79
2022/02/17 09:23:48;;;;;;;9.68;1.60;;;;;;;3.45;100.00;97726.13;4750839;30;20040;-78
2022/02/17 09:26:15;;;;;;;10.43;1.98;;;;;;;3.68;100.00;97750.06;4752484;30;20047;-79
2022/02/17 09:28:41;;;;;;;10.05;1.73;;;;;;;3.85;100.00;97770.69;4752226;30;20043;-79
2022/02/17 09:31:07;;;;;;;12.52;1.75;;;;;;;3.74;100.00;97753.66;4752084;30;20048;-80
2022/02/17 09:33:33;;;;;;;13.02;2.25;;;;;;;3.91;100.00;97781.19;4752601;30;20538;-78
2022/02/17 09:35:59;;;;;;;11.63;2.33;;;;;;;3.99;100.00;97785.38;4757568;30;20123;-78
2022/02/17 09:38:25;;;;;;;11.35;2.30;;;;;;;3.91;100.00;97785.72;4752588;30;20028;-78
2022/02/17 09:40:51;;;;;;;10.90;1.77;;;;;;;3.90;100.00;97800.03;4753879;30;20060;-78
2022/02/17 09:43:17;;;;;;;11.05;1.92;;;;;;;3.69;100.00;97758.84;4753810;30;20040;-79
2022/02/17 09:45:46;;;;;;;10.48;1.85;;;;;;;3.83;100.00;97794.81;4753499;30;20032;-78
2022/02/17 09:48:12;;;;;;;14.13;2.30;;;;;;;3.98;100.00;97807.69;4754837;30;20032;-79
2022/02/17 09:50:38;;;;;;;13.57;2.40;;;;;;;3.94;100.00;97810.00;4756906;30;20364;-79
2022/02/17 09:53:03;;;;;;;11.70;2.20;;;;;;;4.01;100.00;97823.19;4750771;30;20048;-78
2022/02/17 09:55:29;;;;;;;14.80;2.20;;;;;;;4.07;100.00;97824.09;4744997;30;20036;-79
2022/02/17 09:57:54;;;;;;;14.05;3.13;;;;;;;4.01;100.00;97815.22;4766820;30;20032;-79
2022/02/17 10:00:20;;;;;;;15.90;2.45;;;;;;;4.03;100.00;97831.75;4754714;30;20051;-79
2022/02/17 10:02:46;;;;;;;16.75;2.83;;;;;;;4.05;100.00;97840.31;4755951;30;20093;-79
2022/02/17 10:05:12;;;;;;;12.20;2.13;;;;;;;3.94;100.00;97839.28;4761137;30;20479;-79
2022/02/17 10:07:45;;;;;;;11.43;2.42;;;;;;;4.00;100.00;97845.50;4755489;30;20036;-79
2022/02/17 10:10:13;;;;;;;13.60;2.25;;;;;;;3.93;100.00;97836.81;4753424;30;20035;-78
2022/02/17 10:12:59;;;;;;;12.95;2.13;;;;;;;3.92;100.00;97840.53;4754285;30;20028;-80
2022/02/17 10:15:43;;;;;;;18.00;2.60;;;;;;;4.11;100.00;97863.34;4764835;30;20495;-79
2022/02/17 10:18:14;;;;;;;13.03;2.10;;;;;;;4.10;100.00;97867.03;4767942;30;20036;-78
2022/02/17 10:21:07;;;;;;;14.93;2.17;;;;;;;4.07;100.00;97870.16;4769074;30;20028;-80
2022/02/17 10:23:49;;;;;;;10.70;1.50;;;;;;;4.15;100.00;97869.81;4752277;30;20064;-79
2022/02/17 10:26:20;;;;;;;14.68;2.08;;;;;;;4.31;100.00;97880.84;4753990;30;20035;-79
2022/02/17 10:29:03;;;;;;;18.45;2.22;;;;;;;4.41;100.00;97889.88;4747609;30;20523;-79
2022/02/17 10:31:36;;;;;;;16.42;2.10;;;;;;;4.24;100.00;97862.31;4759124;30;20040;-80
2022/02/17 10:34:03;;;;;;;11.52;2.05;;;;;;;4.44;100.00;97891.28;4771486;30;20055;-80
2022/02/17 10:36:42;;;;;;;7.43;1.48;;;;;;;4.52;100.00;97890.91;4757809;30;20090;-80
2022/02/17 10:39:12;;;;;;;12.70;1.73;;;;;;;4.36;100.00;97875.63;4768552;30;20028;-80
2022/02/17 10:41:47;;;;;;;6.15;1.35;;;;;;;4.55;100.00;97905.63;4757790;30;20028;-80
2022/02/17 10:44:12;;;;;;;10.80;1.88;;;;;;;4.42;100.00;97880.03;4761734;30;20040;-79
2022/02/17 10:46:38;;;;;;;8.38;1.23;;;;;;;4.48;100.00;97884.44;4756296;30;20046;-78
2022/02/17 10:49:13;;;;;;;6.43;1.30;;;;;;;4.49;100.00;97880.72;4739859;30;20036;-79
2022/02/17 10:51:39;;;;;;;7.18;1.25;;;;;;;4.68;100.00;97898.22;4757131;30;20036;-79
2022/02/17 10:54:06;;;;;;;8.95;1.27;;;;;;;4.79;100.00;97917.88;4739153;30;20129;-78
2022/02/17 10:56:33;;;;;;;10.80;1.52;;;;;;;4.89;100.00;97923.44;4756896;30;20115;-79
2022/02/17 10:59:04;;;;;;;12.55;1.52;;;;;;;4.93;100.00;97926.44;4765236;30;20043;-79
2022/02/17 11:01:30;;;;;;;9.18;1.40;;;;;;;4.84;100.00;97899.38;4783137;30;20087;-79
2022/02/17 11:03:55;;;;;;;11.07;1.60;;;;;;;4.82;100.00;97905.97;4787812;29;20138;-79
2022/02/17 11:06:21;;;;;;;15.05;2.25;;;;;;;5.02;100.00;97941.03;4765092;30;20094;-79
2022/02/17 11:08:48;;;;;;;13.90;1.65;;;;;;;5.02;100.00;97935.72;4761635;30;20490;-79
2022/02/17 11:11:14;;;;;;;7.25;0.98;;;;;;;5.09;100.00;97939.06;4783932;30;20028;-79
2022/02/17 11:13:43;;;;;;;5.75;1.63;;;;;;;5.04;100.00;97938.16;4751341;30;20039;-79
2022/02/17 11:16:09;;;;;;;5.78;1.65;;;;;;;5.10;100.00;97930.03;4749630;30;20047;-79
2022/02/17 11:18:36;;;;;;;13.43;1.83;;;;;;;5.06;100.00;97934.19;4757508;30;20028;-79
2022/02/17 11:21:02;;;;;;;8.15;1.20;;;;;;;5.00;100.00;97932.47;4760299;30;20138;-79
2022/02/17 11:23:33;;;;;;;6.22;1.08;;;;;;;4.88;100.00;97921.03;4767643;30;20047;-79
2022/02/17 11:26:01;;;;;;;8.77;1.10;;;;;;;4.95;100.00;97943.81;4752969;30;20359;-79
2022/02/17 11:28:34;;;;;;;6.97;0.95;;;;;;;4.80;100.00;97902.72;4753294;30;20056;-79
2022/02/17 11:31:03;;;;;;;10.10;1.30;;;;;;;4.99;100.00;97925.50;4754428;30;20032;-79